createdAt,value
2023-04-14T00:00:10.056Z,1.80
2023-04-14T00:01:10.068Z,1.60
2023-04-14T00:02:10.136Z,1.80
2023-04-14T00:03:10.259Z,1.90
2023-04-14T00:04:10.113Z,1.70
2023-04-14T00:05:10.046Z,1.60
2023-04-14T00:06:09.988Z,1.60
2023-04-14T00:07:10.007Z,1.70
2023-04-14T00:08:09.982Z,1.50
2023-04-14T00:09:09.994Z,1.90
2023-04-14T00:10:09.950Z,1.60
2023-04-14T00:11:09.951Z,1.70
2023-04-14T00:12:09.938Z,1.70
2023-04-14T00:13:09.916Z,1.70
2023-04-14T00:14:09.919Z,1.80
2023-04-14T00:15:09.893Z,1.60
2023-04-14T00:16:09.881Z,1.60
2023-04-14T00:17:09.979Z,1.80
2023-04-14T00:18:10.022Z,1.70
2023-04-14T00:19:09.852Z,1.50
2023-04-14T00:20:09.847Z,1.80
2023-04-14T00:21:09.843Z,1.90
2023-04-14T00:22:09.810Z,1.70
2023-04-14T00:23:09.797Z,1.70
2023-04-14T00:24:09.790Z,1.90
2023-04-14T00:25:09.786Z,1.70
2023-04-14T00:26:09.796Z,1.90
2023-04-14T00:27:09.758Z,2.00
2023-04-14T00:28:09.765Z,1.80
2023-04-14T00:29:09.733Z,2.00
2023-04-14T00:30:09.758Z,1.60
2023-04-14T00:31:09.754Z,1.70
2023-04-14T00:32:09.752Z,2.00
2023-04-14T00:33:09.699Z,2.00
2023-04-14T00:34:09.675Z,1.70
2023-04-14T00:35:09.671Z,1.90
2023-04-14T00:36:09.671Z,1.80
2023-04-14T00:37:09.667Z,1.70
2023-04-14T00:38:09.649Z,1.70
2023-04-14T00:39:09.619Z,1.60
2023-04-14T00:40:12.318Z,2.00
2023-04-14T00:41:09.598Z,2.10
2023-04-14T00:42:09.585Z,1.90
2023-04-14T00:43:09.598Z,2.00
2023-04-14T00:44:09.588Z,1.90
2023-04-14T00:45:09.566Z,1.90
2023-04-14T00:46:09.586Z,1.80
2023-04-14T00:47:09.530Z,1.80
2023-04-14T00:48:09.538Z,2.00
2023-04-14T00:49:09.512Z,2.00
2023-04-14T00:50:09.511Z,1.90
2023-04-14T00:51:09.491Z,2.20
2023-04-14T00:52:09.472Z,1.60
2023-04-14T00:54:19.664Z,1.50
2023-04-14T00:55:19.620Z,1.90
2023-04-14T00:56:22.817Z,1.90
2023-04-14T00:57:19.616Z,2.30
2023-04-14T00:58:19.614Z,2.00
2023-04-14T00:59:19.619Z,2.20
2023-04-14T01:00:19.578Z,2.10
2023-04-14T01:01:19.629Z,1.80
2023-04-14T01:02:19.777Z,1.90
2023-04-14T01:03:19.636Z,2.00
2023-04-14T01:04:19.633Z,2.20
2023-04-14T01:05:19.617Z,2.00
2023-04-14T01:06:19.497Z,2.00
2023-04-14T01:07:19.516Z,1.80
2023-04-14T01:08:19.482Z,2.00
2023-04-14T01:09:19.492Z,2.40
2023-04-14T01:10:19.466Z,2.00
2023-04-14T01:11:19.454Z,2.30
2023-04-14T01:12:19.438Z,2.00
2023-04-14T01:13:19.415Z,2.00
2023-04-14T01:14:19.425Z,2.10
2023-04-14T01:15:19.419Z,2.10
2023-04-14T01:16:19.428Z,2.40
2023-04-14T01:17:19.413Z,2.10
2023-04-14T01:18:19.360Z,1.80
2023-04-14T01:19:19.365Z,2.10
2023-04-14T01:20:19.334Z,2.20
2023-04-14T01:21:19.401Z,2.10
2023-04-14T01:22:19.324Z,2.00
2023-04-14T01:23:19.308Z,2.20
2023-04-14T01:24:19.311Z,2.50
2023-04-14T01:25:19.324Z,2.20
2023-04-14T01:26:19.288Z,1.80
2023-04-14T01:27:19.255Z,2.10
2023-04-14T01:28:19.280Z,1.80
2023-04-14T01:29:19.291Z,2.00
2023-04-14T01:30:19.262Z,2.30
2023-04-14T01:31:19.242Z,2.00
2023-04-14T01:32:19.208Z,2.30
2023-04-14T01:33:19.200Z,2.20
2023-04-14T01:34:19.219Z,1.90
2023-04-14T01:35:19.182Z,2.00
2023-04-14T01:36:19.166Z,1.90
2023-04-14T01:37:19.161Z,2.20
2023-04-14T01:38:19.130Z,2.00
2023-04-14T01:39:19.138Z,1.80
2023-04-14T01:40:19.121Z,2.20
2023-04-14T01:41:19.100Z,2.00
2023-04-14T01:42:19.105Z,2.30
2023-04-14T01:43:19.105Z,2.10
2023-04-14T01:44:19.069Z,2.30
2023-04-14T01:45:27.132Z,2.20
2023-04-14T01:46:19.160Z,2.30
2023-04-14T01:47:19.052Z,2.10
2023-04-14T01:48:19.037Z,2.40
2023-04-14T01:49:19.047Z,2.10
2023-04-14T01:50:19.011Z,2.40
2023-04-14T01:51:19.005Z,2.30
2023-04-14T01:52:18.983Z,2.20
2023-04-14T01:53:18.987Z,2.40
2023-04-14T01:54:18.982Z,2.30
2023-04-14T01:55:18.982Z,2.30
2023-04-14T01:56:18.955Z,2.00
2023-04-14T01:57:18.915Z,2.20
2023-04-14T01:58:18.933Z,2.20
2023-04-14T01:59:18.899Z,2.30
2023-04-14T02:00:18.905Z,2.00
2023-04-14T02:01:18.927Z,2.50
2023-04-14T02:02:18.956Z,2.30
2023-04-14T02:03:18.909Z,2.30
2023-04-14T02:04:18.874Z,2.50
2023-04-14T02:05:18.849Z,2.10
2023-04-14T02:06:18.850Z,2.20
2023-04-14T02:07:18.834Z,2.30
2023-04-14T02:08:18.814Z,2.00
2023-04-14T02:09:18.792Z,2.20
2023-04-14T02:10:18.778Z,2.20
2023-04-14T02:11:18.752Z,2.50
2023-04-14T02:12:18.757Z,2.30
2023-04-14T02:13:18.750Z,2.30
2023-04-14T02:14:18.748Z,2.80
2023-04-14T02:15:18.778Z,2.60
2023-04-14T02:16:18.754Z,2.60
2023-04-14T02:17:18.689Z,2.80
2023-04-14T02:18:18.678Z,2.70
2023-04-14T02:19:18.701Z,2.50
2023-04-14T02:20:18.651Z,2.90
2023-04-14T02:21:18.729Z,2.80
2023-04-14T02:22:18.633Z,2.60
2023-04-14T02:23:18.623Z,2.70
2023-04-14T02:24:18.607Z,3.10
2023-04-14T02:25:18.646Z,2.60
2023-04-14T02:26:18.593Z,2.50
2023-04-14T02:27:18.571Z,2.60
2023-04-14T02:28:18.565Z,2.80
2023-04-14T02:29:18.604Z,2.70
2023-04-14T02:30:18.543Z,2.70
2023-04-14T02:31:18.603Z,2.60
2023-04-14T02:32:18.612Z,2.50
2023-04-14T02:33:18.857Z,2.70
2023-04-14T02:34:18.529Z,2.70
2023-04-14T02:35:18.544Z,2.80
2023-04-14T02:36:18.533Z,2.70
2023-04-14T02:37:18.478Z,2.70
2023-04-14T02:38:18.457Z,2.50
2023-04-14T02:39:18.463Z,2.60
2023-04-14T02:40:18.451Z,2.70
2023-04-14T02:41:18.420Z,2.50
2023-04-14T02:42:18.405Z,2.70
2023-04-14T02:43:18.410Z,2.50
2023-04-14T02:44:18.389Z,2.80
2023-04-14T02:45:18.395Z,2.80
2023-04-14T02:46:18.443Z,2.80
2023-04-14T02:47:18.533Z,2.80
2023-04-14T02:48:18.400Z,3.10
2023-04-14T02:49:18.472Z,2.90
2023-04-14T02:50:18.353Z,2.70
2023-04-14T02:51:18.324Z,2.90
2023-04-14T02:52:18.309Z,2.80
2023-04-14T02:53:18.323Z,2.80
2023-04-14T02:54:18.277Z,2.80
2023-04-14T02:55:18.295Z,3.00
2023-04-14T02:56:18.272Z,2.70
2023-04-14T02:57:18.248Z,2.60
2023-04-14T02:58:18.241Z,2.50
2023-04-14T02:59:18.220Z,2.70
2023-04-14T03:00:18.258Z,2.90
2023-04-14T03:01:18.245Z,2.90
2023-04-14T03:02:18.306Z,3.20
2023-04-14T03:03:18.204Z,3.00
2023-04-14T03:04:18.230Z,3.00
2023-04-14T03:05:18.161Z,3.50
2023-04-14T03:06:18.185Z,3.10
2023-04-14T03:07:18.137Z,3.20
2023-04-14T03:08:18.133Z,2.90
2023-04-14T03:09:18.130Z,3.20
2023-04-14T03:10:18.124Z,3.20
2023-04-14T03:11:18.088Z,3.10
2023-04-14T03:12:18.090Z,3.10
2023-04-14T03:13:18.073Z,3.20
2023-04-14T03:14:18.056Z,3.10
2023-04-14T03:15:18.065Z,3.30
2023-04-14T03:16:18.091Z,3.40
2023-04-14T03:17:18.035Z,3.20
2023-04-14T03:18:18.025Z,3.50
2023-04-14T03:19:18.001Z,3.20
2023-04-14T03:20:18.014Z,3.40
2023-04-14T03:21:17.976Z,3.70
2023-04-14T03:22:17.987Z,3.10
2023-04-14T03:23:17.960Z,4.10
2023-04-14T03:24:17.957Z,3.50
2023-04-14T03:25:17.952Z,3.80
2023-04-14T03:26:17.927Z,3.70
2023-04-14T03:27:17.949Z,3.20
2023-04-14T03:28:17.905Z,3.60
2023-04-14T03:29:17.885Z,3.80
2023-04-14T03:30:17.910Z,3.60
2023-04-14T03:31:17.920Z,3.60
2023-04-14T03:32:17.896Z,3.40
2023-04-14T03:33:17.842Z,3.70
2023-04-14T03:34:17.841Z,5.90
2023-04-14T03:35:17.823Z,4.90
2023-04-14T03:36:17.854Z,3.50
2023-04-14T03:37:17.815Z,3.60
2023-04-14T03:38:17.834Z,3.50
2023-04-14T03:39:17.773Z,3.70
2023-04-14T03:40:17.762Z,3.50
2023-04-14T03:41:17.772Z,3.60
2023-04-14T03:42:17.771Z,4.00
2023-04-14T03:43:17.726Z,3.60
2023-04-14T03:44:17.727Z,3.90
2023-04-14T03:45:17.705Z,3.40
2023-04-14T03:46:17.726Z,4.00
2023-04-14T03:47:17.731Z,7.00
2023-04-14T03:48:17.688Z,9.10
2023-04-14T03:49:17.663Z,4.30
2023-04-14T03:50:17.645Z,4.00
2023-04-14T03:51:17.643Z,4.10
2023-04-14T03:52:17.646Z,7.30
2023-04-14T03:53:17.614Z,6.50
2023-04-14T03:54:17.614Z,7.00
2023-04-14T03:55:17.595Z,5.70
2023-04-14T03:56:17.589Z,9.60
2023-04-14T03:57:17.653Z,15.70
2023-04-14T03:58:17.563Z,8.90
2023-04-14T03:59:17.550Z,4.80
2023-04-14T04:00:17.568Z,5.00
2023-04-14T04:01:17.533Z,10.40
2023-04-14T04:02:17.593Z,11.00
2023-04-14T04:03:17.660Z,9.10
2023-04-14T04:04:17.586Z,11.00
2023-04-14T04:05:17.498Z,4.90
2023-04-14T04:06:17.501Z,4.50
2023-04-14T04:07:17.463Z,4.20
2023-04-14T04:08:17.444Z,3.70
2023-04-14T04:09:17.437Z,3.70
2023-04-14T04:10:17.851Z,4.10
2023-04-14T04:11:17.437Z,4.50
2023-04-14T04:12:17.499Z,4.30
2023-04-14T04:13:17.416Z,4.70
2023-04-14T04:14:19.994Z,4.40
2023-04-14T04:15:17.392Z,4.00
2023-04-14T04:16:17.418Z,4.20
2023-04-14T04:17:17.424Z,4.50
2023-04-14T04:18:17.331Z,4.10
2023-04-14T04:19:17.324Z,4.30
2023-04-14T04:20:17.333Z,4.10
2023-04-14T04:21:17.301Z,4.80
2023-04-14T04:22:17.299Z,4.20
2023-04-14T04:23:17.294Z,4.30
2023-04-14T04:24:17.286Z,4.30
2023-04-14T04:25:17.290Z,4.60
2023-04-14T04:26:17.246Z,4.80
2023-04-14T04:27:27.121Z,4.40
2023-04-14T04:28:18.226Z,4.20
2023-04-14T04:29:17.227Z,4.20
2023-04-14T04:30:17.217Z,4.20
2023-04-14T04:31:17.299Z,4.70
2023-04-14T04:32:17.279Z,4.60
2023-04-14T04:33:17.213Z,4.30
2023-04-14T04:34:17.182Z,4.90
2023-04-14T04:35:17.178Z,4.80
2023-04-14T04:36:17.138Z,4.70
2023-04-14T04:37:17.158Z,5.30
2023-04-14T04:38:17.107Z,4.90
2023-04-14T04:39:17.131Z,4.90
2023-04-14T04:40:17.121Z,5.40
2023-04-14T04:41:17.144Z,4.80
2023-04-14T04:42:17.083Z,4.80
2023-04-14T04:43:17.057Z,5.90
2023-04-14T04:44:17.037Z,6.70
2023-04-14T04:45:17.066Z,6.50
2023-04-14T04:46:17.052Z,6.50
2023-04-14T04:47:17.084Z,5.70
2023-04-14T04:48:16.994Z,5.70
2023-04-14T04:49:16.993Z,8.10
2023-04-14T04:50:18.862Z,6.90
2023-04-14T04:51:16.968Z,5.40
2023-04-14T04:52:16.957Z,5.10
2023-04-14T04:53:16.951Z,5.10
2023-04-14T04:54:16.940Z,5.10
2023-04-14T04:55:16.943Z,4.50
2023-04-14T04:56:16.909Z,4.80
2023-04-14T04:57:16.904Z,4.40
2023-04-14T04:58:16.883Z,5.60
2023-04-14T04:59:16.892Z,11.70
2023-04-14T05:00:16.900Z,10.90
2023-04-14T05:01:17.003Z,8.20
2023-04-14T05:02:16.863Z,6.90
2023-04-14T05:03:16.896Z,5.20
2023-04-14T05:04:16.858Z,5.40
2023-04-14T05:05:16.846Z,6.60
2023-04-14T05:06:16.796Z,5.00
2023-04-14T05:07:16.804Z,5.30
2023-04-14T05:08:16.784Z,4.80
2023-04-14T05:09:16.783Z,4.30
2023-04-14T05:10:16.750Z,4.60
2023-04-14T05:11:16.753Z,4.70
2023-04-14T05:12:16.749Z,5.00
2023-04-14T05:13:16.716Z,4.80
2023-04-14T05:14:16.710Z,5.00
2023-04-14T05:15:16.718Z,6.10
2023-04-14T05:16:16.758Z,6.20
2023-04-14T05:17:16.696Z,5.70
2023-04-14T05:18:16.657Z,5.40
2023-04-14T05:19:16.646Z,5.40
2023-04-14T05:20:16.650Z,6.00
2023-04-14T05:21:16.670Z,5.70
2023-04-14T05:22:16.631Z,6.20
2023-04-14T05:23:16.620Z,5.20
2023-04-14T05:24:16.597Z,4.70
2023-04-14T05:25:16.582Z,4.70
2023-04-14T05:26:38.754Z,4.80
2023-04-14T05:27:17.560Z,5.10
2023-04-14T05:28:16.557Z,5.30
2023-04-14T05:29:16.567Z,5.50
2023-04-14T05:30:16.524Z,4.90
2023-04-14T05:31:16.633Z,5.50
2023-04-14T05:32:16.502Z,6.20
2023-04-14T05:33:16.520Z,6.90
2023-04-14T05:34:16.494Z,5.80
2023-04-14T05:35:16.498Z,6.40
2023-04-14T05:36:16.488Z,6.90
2023-04-14T05:37:16.444Z,6.20
2023-04-14T05:38:16.452Z,6.20
2023-04-14T05:39:16.420Z,5.70
2023-04-14T05:40:16.435Z,6.80
2023-04-14T05:41:16.409Z,7.00
2023-04-14T05:42:16.427Z,7.00
2023-04-14T05:43:16.373Z,6.10
2023-04-14T05:44:16.388Z,6.60
2023-04-14T05:45:16.351Z,8.60
2023-04-14T05:46:16.398Z,6.10
2023-04-14T05:47:16.343Z,6.30
2023-04-14T05:48:16.316Z,6.10
2023-04-14T05:49:16.344Z,7.20
2023-04-14T05:50:16.291Z,6.90
2023-04-14T05:51:18.231Z,6.30
2023-04-14T05:52:16.272Z,6.10
2023-04-14T05:53:16.272Z,6.50
2023-04-14T05:54:16.265Z,6.50
2023-04-14T05:55:16.242Z,6.60
2023-04-14T05:56:16.236Z,6.10
2023-04-14T05:57:16.215Z,7.00
2023-04-14T05:58:16.201Z,6.20
2023-04-14T05:59:16.226Z,6.30
2023-04-14T06:00:16.180Z,6.80
2023-04-14T06:01:16.170Z,6.30
2023-04-14T06:02:16.270Z,5.60
2023-04-14T06:03:16.620Z,7.00
2023-04-14T06:04:16.388Z,5.80
2023-04-14T06:05:16.195Z,5.60
2023-04-14T06:06:16.130Z,5.20
2023-04-14T06:07:16.126Z,5.10
2023-04-14T06:08:16.099Z,5.20
2023-04-14T06:09:16.088Z,7.30
2023-04-14T06:10:16.073Z,4.80
2023-04-14T06:11:16.095Z,4.90
2023-04-14T06:12:16.045Z,5.00
2023-04-14T06:13:16.067Z,4.80
2023-04-14T06:14:16.031Z,5.10
2023-04-14T06:15:16.019Z,5.40
2023-04-14T06:16:16.042Z,4.80
2023-04-14T06:17:16.005Z,5.10
2023-04-14T06:18:16.018Z,5.30
2023-04-14T06:19:15.972Z,5.50
2023-04-14T06:20:15.961Z,5.30
2023-04-14T06:21:15.972Z,5.00
2023-04-14T06:22:15.967Z,5.50
2023-04-14T06:23:15.944Z,5.00
2023-04-14T06:24:15.912Z,5.30
2023-04-14T06:25:15.951Z,4.80
2023-04-14T06:26:15.919Z,5.00
2023-04-14T06:27:15.901Z,4.90
2023-04-14T06:28:15.888Z,4.90
2023-04-14T06:29:15.873Z,5.20
2023-04-14T06:30:15.846Z,5.50
2023-04-14T06:31:15.933Z,5.40
2023-04-14T06:32:15.963Z,5.40
2023-04-14T06:33:15.839Z,4.90
2023-04-14T06:34:15.806Z,5.10
2023-04-14T06:35:26.019Z,5.00
2023-04-14T06:36:16.785Z,5.00
2023-04-14T06:37:15.801Z,5.00
2023-04-14T06:38:15.748Z,5.30
2023-04-14T06:39:15.778Z,4.60
2023-04-14T06:40:15.749Z,4.10
2023-04-14T06:41:15.767Z,9.40
2023-04-14T06:42:15.720Z,6.60
2023-04-14T06:43:15.693Z,6.50
2023-04-14T06:44:15.680Z,10.80
2023-04-14T06:45:15.694Z,7.00
2023-04-14T06:46:15.680Z,11.30
2023-04-14T06:47:15.692Z,8.10
2023-04-14T06:48:15.679Z,4.20
2023-04-14T06:49:15.630Z,11.00
2023-04-14T06:50:15.784Z,5.70
2023-04-14T06:51:15.604Z,4.60
2023-04-14T06:52:15.616Z,9.20
2023-04-14T06:53:15.604Z,11.60
2023-04-14T06:54:15.563Z,5.30
2023-04-14T06:55:15.574Z,4.40
2023-04-14T06:56:15.563Z,3.90
2023-04-14T06:57:15.537Z,4.40
2023-04-14T06:58:15.678Z,5.20
2023-04-14T06:59:15.593Z,3.80
2023-04-14T07:00:15.532Z,3.50
2023-04-14T07:01:15.546Z,3.70
2023-04-14T07:02:15.561Z,3.70
2023-04-14T07:03:15.510Z,4.10
2023-04-14T07:04:16.037Z,3.40
2023-04-14T07:05:15.473Z,3.40
2023-04-14T07:06:15.428Z,3.70
2023-04-14T07:07:15.433Z,3.30
2023-04-14T07:08:15.404Z,3.20
2023-04-14T07:09:15.427Z,4.00
2023-04-14T07:10:15.397Z,5.50
2023-04-14T07:11:15.379Z,4.40
2023-04-14T07:12:15.362Z,3.60
2023-04-14T07:13:15.348Z,3.00
2023-04-14T07:14:15.356Z,3.60
2023-04-14T07:15:15.333Z,4.00
2023-04-14T07:16:15.338Z,4.30
2023-04-14T07:17:15.307Z,3.70
2023-04-14T07:18:15.347Z,5.20
2023-04-14T07:19:15.301Z,5.40
2023-04-14T07:20:15.275Z,4.40
2023-04-14T07:21:15.280Z,5.20
2023-04-14T07:22:15.261Z,4.70
2023-04-14T07:23:15.230Z,3.90
2023-04-14T07:24:24.023Z,4.90
2023-04-14T07:25:15.236Z,4.80
2023-04-14T07:26:15.195Z,4.00
2023-04-14T07:27:15.704Z,3.70
2023-04-14T07:28:15.175Z,4.80
2023-04-14T07:29:15.177Z,3.60
2023-04-14T07:30:15.190Z,4.60
2023-04-14T07:31:15.165Z,4.70
2023-04-14T07:32:15.145Z,4.20
2023-04-14T07:33:15.115Z,4.40
2023-04-14T07:34:15.110Z,4.40
2023-04-14T07:35:15.123Z,4.70
2023-04-14T07:36:15.085Z,5.30
2023-04-14T07:37:15.075Z,4.50
2023-04-14T07:38:15.057Z,5.40
2023-04-14T07:39:15.065Z,4.10
2023-04-14T07:40:15.068Z,4.30
2023-04-14T07:41:15.078Z,6.80
2023-04-14T07:42:15.027Z,5.10
2023-04-14T07:43:15.005Z,4.10
2023-04-14T07:44:14.993Z,4.10
2023-04-14T07:45:15.655Z,4.50
2023-04-14T07:46:15.045Z,4.20
2023-04-14T07:47:15.119Z,5.00
2023-04-14T07:48:14.957Z,4.80
2023-04-14T07:49:14.969Z,5.50
2023-04-14T07:50:14.951Z,6.80
2023-04-14T07:51:14.919Z,5.20
2023-04-14T07:52:14.904Z,6.00
2023-04-14T07:53:14.927Z,4.10
2023-04-14T07:54:15.063Z,4.60
2023-04-14T07:55:14.876Z,4.50
2023-04-14T07:56:14.888Z,4.80
2023-04-14T07:57:14.857Z,5.60
2023-04-14T07:58:15.572Z,4.60
2023-04-14T07:59:15.002Z,4.80
2023-04-14T08:00:14.814Z,4.60
2023-04-14T08:01:14.799Z,4.40
2023-04-14T08:02:14.876Z,5.20
2023-04-14T08:03:14.839Z,4.90
2023-04-14T08:04:14.950Z,4.40
2023-04-14T08:05:14.808Z,4.90
2023-04-14T08:06:14.757Z,4.60
2023-04-14T08:07:14.725Z,4.90
2023-04-14T08:08:14.917Z,4.60
2023-04-14T08:09:14.743Z,4.20
2023-04-14T08:10:14.718Z,4.40
2023-04-14T08:11:14.681Z,4.20
2023-04-14T08:12:14.690Z,4.20
2023-04-14T08:13:14.661Z,4.50
2023-04-14T08:14:14.649Z,4.60
2023-04-14T08:15:14.654Z,4.60
2023-04-14T08:16:14.731Z,4.10
2023-04-14T08:17:14.802Z,4.40
2023-04-14T08:18:14.737Z,5.10
2023-04-14T08:19:14.596Z,4.50
2023-04-14T08:20:14.589Z,4.00
2023-04-14T08:21:14.572Z,4.40
2023-04-14T08:22:14.591Z,4.90
2023-04-14T08:23:14.539Z,4.60
2023-04-14T08:24:14.560Z,4.20
2023-04-14T08:25:14.541Z,4.00
2023-04-14T08:26:14.512Z,4.20
2023-04-14T08:27:14.492Z,4.30
2023-04-14T08:28:14.569Z,4.10
2023-04-14T08:29:14.588Z,4.70
2023-04-14T08:30:14.495Z,4.20
2023-04-14T08:31:14.485Z,5.30
2023-04-14T08:32:14.494Z,4.80
2023-04-14T08:33:14.465Z,4.90
2023-04-14T08:34:14.441Z,4.30
2023-04-14T08:35:38.527Z,4.50
2023-04-14T08:36:15.404Z,4.20
2023-04-14T08:37:14.387Z,4.70
2023-04-14T08:38:14.551Z,4.10
2023-04-14T08:39:14.384Z,4.50
2023-04-14T08:40:14.504Z,4.10
2023-04-14T08:41:14.380Z,4.00
2023-04-14T08:42:14.519Z,3.90
2023-04-14T08:43:15.466Z,4.10
2023-04-14T08:44:14.341Z,3.80
2023-04-14T08:45:14.296Z,3.90
2023-04-14T08:46:14.354Z,4.10
2023-04-14T08:47:14.283Z,4.00
2023-04-14T08:48:14.342Z,4.40
2023-04-14T08:49:14.251Z,3.90
2023-04-14T08:50:14.245Z,4.60
2023-04-14T08:51:14.235Z,4.10
2023-04-14T08:52:14.240Z,3.60
2023-04-14T08:53:14.263Z,3.50
2023-04-14T08:54:14.210Z,3.40
2023-04-14T08:55:14.208Z,3.70
2023-04-14T08:56:15.184Z,3.80
2023-04-14T08:57:14.172Z,3.90
2023-04-14T08:58:14.201Z,3.70
2023-04-14T08:59:14.192Z,4.20
2023-04-14T09:00:14.157Z,3.60
2023-04-14T09:01:15.180Z,4.30
2023-04-14T09:02:14.332Z,3.90
2023-04-14T09:03:14.254Z,3.80
2023-04-14T09:04:14.357Z,3.50
2023-04-14T09:05:14.113Z,3.60
2023-04-14T09:06:14.100Z,3.50
2023-04-14T09:07:14.054Z,3.50
2023-04-14T09:08:14.086Z,3.50
2023-04-14T09:09:14.030Z,3.30
2023-04-14T09:10:14.041Z,3.40
2023-04-14T09:11:14.009Z,3.20
2023-04-14T09:12:14.006Z,3.70
2023-04-14T09:13:13.988Z,2.90
2023-04-14T09:14:14.005Z,3.30
2023-04-14T09:15:13.964Z,3.40
2023-04-14T09:16:14.019Z,3.00
2023-04-14T09:17:14.051Z,2.90
2023-04-14T09:18:14.135Z,3.60
2023-04-14T09:19:13.922Z,3.10
2023-04-14T09:20:38.444Z,3.10
2023-04-14T09:21:34.327Z,3.60
2023-04-14T09:22:14.885Z,3.60
2023-04-14T09:23:13.904Z,3.30
2023-04-14T09:24:13.878Z,3.10
2023-04-14T09:25:13.857Z,3.30
2023-04-14T09:26:13.843Z,3.40
2023-04-14T09:27:13.829Z,3.50
2023-04-14T09:28:13.837Z,3.30
2023-04-14T09:29:13.827Z,3.80
2023-04-14T09:30:13.830Z,3.60
2023-04-14T09:31:13.826Z,3.80
2023-04-14T09:32:13.829Z,4.20
2023-04-14T09:33:13.820Z,3.60
2023-04-14T09:34:13.890Z,3.80
2023-04-14T09:35:13.750Z,4.00
2023-04-14T09:36:13.761Z,3.80
2023-04-14T09:37:13.733Z,3.70
2023-04-14T09:38:13.722Z,4.00
2023-04-14T09:39:13.709Z,3.90
2023-04-14T09:40:13.700Z,3.80
2023-04-14T09:41:13.673Z,3.80
2023-04-14T09:42:13.686Z,3.80
2023-04-14T09:43:13.664Z,3.40
2023-04-14T09:44:13.640Z,3.20
2023-04-14T09:45:13.625Z,3.70
2023-04-14T09:46:13.664Z,3.60
2023-04-14T09:47:13.621Z,3.30
2023-04-14T09:48:13.627Z,4.30
2023-04-14T09:49:13.591Z,3.30
2023-04-14T09:50:20.907Z,3.40
2023-04-14T09:51:13.580Z,3.60
2023-04-14T09:52:20.629Z,3.30
2023-04-14T09:53:20.578Z,4.10
2023-04-14T09:54:20.622Z,3.60
2023-04-14T09:55:13.561Z,3.90
2023-04-14T09:56:20.687Z,3.30
2023-04-14T09:57:13.505Z,3.20
2023-04-14T09:58:13.488Z,3.40
2023-04-14T09:59:13.496Z,3.40
2023-04-14T10:00:13.456Z,3.50
2023-04-14T10:01:13.612Z,3.50
2023-04-14T10:02:13.516Z,3.00
2023-04-14T10:03:13.555Z,3.40
2023-04-14T10:04:13.478Z,4.30
2023-04-14T10:05:13.421Z,3.60
2023-04-14T10:06:13.430Z,3.50
2023-04-14T10:07:13.387Z,3.00
2023-04-14T10:08:13.379Z,2.80
2023-04-14T10:09:13.376Z,2.90
2023-04-14T10:10:13.808Z,3.50
2023-04-14T10:11:13.332Z,3.30
2023-04-14T10:12:13.381Z,3.40
2023-04-14T10:13:13.342Z,3.30
2023-04-14T10:14:13.310Z,3.10
2023-04-14T10:15:13.292Z,3.60
2023-04-14T10:16:13.324Z,3.30
2023-04-14T10:17:13.296Z,2.80
2023-04-14T10:18:13.349Z,3.40
2023-04-14T10:19:13.247Z,3.70
2023-04-14T10:20:13.249Z,3.10
2023-04-14T10:21:13.221Z,3.00
2023-04-14T10:22:13.216Z,3.90
2023-04-14T10:23:13.221Z,3.00
2023-04-14T10:24:13.190Z,2.70
2023-04-14T10:25:13.215Z,2.90
2023-04-14T10:26:13.172Z,2.20
2023-04-14T10:27:13.150Z,2.60
2023-04-14T10:28:13.172Z,3.70
2023-04-14T10:29:13.127Z,3.20
2023-04-14T10:30:13.117Z,2.40
2023-04-14T10:31:13.205Z,2.80
2023-04-14T10:32:13.102Z,2.70
2023-04-14T10:33:13.101Z,2.60
2023-04-14T10:34:13.117Z,2.20
2023-04-14T10:35:13.076Z,2.50
2023-04-14T10:36:13.075Z,2.60
2023-04-14T10:37:13.057Z,2.80
2023-04-14T10:38:16.174Z,2.70
2023-04-14T10:39:13.032Z,2.60
2023-04-14T10:40:13.071Z,2.80
2023-04-14T10:41:13.023Z,4.00
2023-04-14T10:42:12.989Z,4.90
2023-04-14T10:43:12.971Z,3.20
2023-04-14T10:44:12.982Z,2.90
2023-04-14T10:45:13.015Z,2.70
2023-04-14T10:46:12.974Z,3.30
2023-04-14T10:47:12.963Z,2.80
2023-04-14T10:48:12.941Z,3.00
2023-04-14T10:49:12.932Z,3.00
2023-04-14T10:50:12.906Z,3.10
2023-04-14T10:51:12.905Z,3.10
2023-04-14T10:52:12.912Z,2.80
2023-04-14T10:53:12.863Z,2.40
2023-04-14T10:54:12.886Z,2.60
2023-04-14T10:55:12.841Z,3.10
2023-04-14T10:56:12.836Z,6.70
2023-04-14T10:57:12.834Z,3.20
2023-04-14T10:58:12.811Z,2.20
2023-04-14T10:59:12.803Z,2.50
2023-04-14T11:00:12.790Z,2.60
2023-04-14T11:01:12.840Z,2.70
2023-04-14T11:02:12.868Z,2.70
2023-04-14T11:03:13.026Z,2.70
2023-04-14T11:04:12.886Z,3.40
2023-04-14T11:05:12.848Z,2.80
2023-04-14T11:06:12.721Z,2.80
2023-04-14T11:07:12.737Z,2.40
2023-04-14T11:08:12.746Z,3.30
2023-04-14T11:09:12.698Z,2.10
2023-04-14T11:10:12.669Z,2.30
2023-04-14T11:11:12.679Z,1.80
2023-04-14T11:12:12.677Z,1.90
2023-04-14T11:13:12.636Z,2.00
2023-04-14T11:14:13.617Z,2.20
2023-04-14T11:15:12.654Z,2.20
2023-04-14T11:16:12.706Z,3.30
2023-04-14T11:17:12.627Z,2.00
2023-04-14T11:18:12.637Z,1.90
2023-04-14T11:19:12.563Z,1.90
2023-04-14T11:20:12.575Z,1.90
2023-04-14T11:21:12.560Z,1.80
2023-04-14T11:22:12.535Z,1.80
2023-04-14T11:23:12.560Z,2.00
2023-04-14T11:24:12.549Z,1.90
2023-04-14T11:25:12.502Z,1.90
2023-04-14T11:26:12.503Z,1.90
2023-04-14T11:27:12.500Z,2.10
2023-04-14T11:28:12.463Z,2.40
2023-04-14T11:29:12.456Z,2.20
2023-04-14T11:30:12.443Z,3.50
2023-04-14T11:31:12.442Z,10.10
2023-04-14T11:32:12.460Z,3.50
2023-04-14T11:33:12.442Z,3.40
2023-04-14T11:34:12.397Z,5.00
2023-04-14T11:35:12.390Z,2.80
2023-04-14T11:36:12.388Z,2.50
2023-04-14T11:37:12.382Z,2.20
2023-04-14T11:38:12.388Z,2.30
2023-04-14T11:39:12.334Z,1.80
2023-04-14T11:40:12.381Z,3.20
2023-04-14T11:41:12.310Z,1.90
2023-04-14T11:42:12.326Z,2.50
2023-04-14T11:43:12.318Z,2.00
2023-04-14T11:44:12.294Z,2.10
2023-04-14T11:45:12.270Z,2.30
2023-04-14T11:46:12.281Z,2.90
2023-04-14T11:47:12.273Z,1.80
2023-04-14T11:48:12.232Z,2.00
2023-04-14T11:49:12.243Z,1.80
2023-04-14T11:50:12.228Z,1.90
2023-04-14T11:51:12.211Z,2.00
2023-04-14T11:52:12.213Z,2.00
2023-04-14T11:53:12.193Z,1.80
2023-04-14T11:54:12.229Z,1.80
2023-04-14T11:55:12.163Z,2.00
2023-04-14T11:56:12.209Z,3.70
2023-04-14T11:57:12.134Z,2.10
2023-04-14T11:58:12.125Z,2.00
2023-04-14T11:59:12.129Z,2.80
2023-04-14T12:00:12.109Z,3.50
2023-04-14T12:01:12.097Z,2.40
2023-04-14T12:02:12.167Z,2.30
2023-04-14T12:03:12.248Z,2.20
2023-04-14T12:04:12.368Z,2.30
2023-04-14T12:05:12.314Z,2.60
2023-04-14T12:06:12.038Z,2.40
2023-04-14T12:07:12.037Z,2.40
2023-04-14T12:08:12.461Z,2.30
2023-04-14T12:09:12.053Z,2.00
2023-04-14T12:10:11.997Z,2.30
2023-04-14T12:11:13.216Z,2.00
2023-04-14T12:12:12.001Z,2.40
2023-04-14T12:13:11.972Z,1.90
2023-04-14T12:14:11.941Z,1.90
2023-04-14T12:15:11.947Z,2.30
2023-04-14T12:16:12.031Z,2.00
2023-04-14T12:17:11.914Z,2.00
2023-04-14T12:18:11.929Z,2.10
2023-04-14T12:19:11.915Z,2.20
2023-04-14T12:20:11.871Z,2.20
2023-04-14T12:21:12.123Z,2.50
2023-04-14T12:22:11.843Z,2.80
2023-04-14T12:23:11.867Z,2.20
2023-04-14T12:24:11.854Z,2.60
2023-04-14T12:25:11.824Z,2.40
2023-04-14T12:26:11.824Z,2.40
2023-04-14T12:27:11.795Z,2.30
2023-04-14T12:28:11.796Z,2.30
2023-04-14T12:29:11.786Z,2.40
2023-04-14T12:30:11.789Z,2.30
2023-04-14T12:31:11.818Z,2.10
2023-04-14T12:32:11.758Z,2.30
2023-04-14T12:33:11.736Z,2.40
2023-04-14T12:34:11.729Z,2.40
2023-04-14T12:35:11.721Z,2.30
2023-04-14T12:36:11.684Z,2.40
2023-04-14T12:37:11.678Z,2.30
2023-04-14T12:38:11.671Z,2.20
2023-04-14T12:39:11.653Z,2.20
2023-04-14T12:40:12.553Z,2.60
2023-04-14T12:41:11.653Z,2.20
2023-04-14T12:42:11.615Z,1.90
2023-04-14T12:43:11.601Z,2.40
2023-04-14T12:44:11.613Z,2.00
2023-04-14T12:45:11.582Z,2.20
2023-04-14T12:46:11.592Z,1.90
2023-04-14T12:47:11.619Z,1.90
2023-04-14T12:48:11.678Z,2.20
2023-04-14T12:49:11.560Z,2.10
2023-04-14T12:50:11.670Z,1.90
2023-04-14T12:51:12.667Z,2.10
2023-04-14T12:52:11.500Z,2.00
2023-04-14T12:53:11.498Z,2.10
2023-04-14T12:54:11.507Z,2.20
2023-04-14T12:55:11.477Z,2.00
2023-04-14T12:56:11.479Z,2.00
2023-04-14T12:57:11.448Z,2.30
2023-04-14T12:58:11.454Z,2.00
2023-04-14T12:59:11.429Z,1.80
2023-04-14T13:00:11.438Z,2.00
2023-04-14T13:01:11.509Z,2.10
2023-04-14T13:02:11.468Z,1.80
2023-04-14T13:03:11.568Z,1.90
2023-04-14T13:04:11.639Z,2.20
2023-04-14T13:05:11.350Z,1.90
2023-04-14T13:06:11.365Z,1.80
2023-04-14T13:07:18.450Z,1.90
2023-04-14T13:08:18.535Z,2.10
2023-04-14T13:09:11.317Z,2.30
2023-04-14T13:10:11.306Z,2.50
2023-04-14T13:11:11.302Z,2.00
2023-04-14T13:12:11.282Z,2.20
2023-04-14T13:13:11.282Z,2.20
2023-04-14T13:14:18.888Z,2.20
2023-04-14T13:15:31.086Z,2.40
2023-04-14T13:24:10.669Z,1.60
2023-04-14T13:25:10.645Z,2.10
2023-04-14T13:26:10.680Z,2.10
2023-04-14T13:27:11.288Z,2.00